Time;durP1;ratioP1;P1;durP2;ratioP2;P2;SDS_P1;SDS_P2;PMS_P1;PMS_P2;Temp;Humidity;BMP_temperature;BMP_pressure;BME280_temperature;BME280_humidity;BME280_pressure;Samples;Min_cycle;Max_cycle;Signal;HPM_P1;HPM_P2
2021/08/12 00:00:10;;;;;;;12.43;8.35;;;;;;;15.45;100.00;95453.00;4996096;28;20064;-57
2021/08/12 00:02:36;;;;;;;9.65;7.70;;;;;;;15.42;100.00;95451.69;4995791;28;20034;-52
2021/08/12 00:05:04;;;;;;;12.07;8.93;;;;;;;15.38;100.00;95456.84;4994757;28;20486;-52
2021/08/12 00:07:33;;;;;;;12.35;7.82;;;;;;;15.36;100.00;95463.63;4978579;28;20026;-52
2021/08/12 00:10:05;;;;;;;9.43;7.75;;;;;;;15.34;100.00;95455.81;4995897;28;20030;-53
2021/08/12 00:12:30;;;;;;;11.05;8.02;;;;;;;15.34;100.00;95460.41;4994507;28;20018;-56
2021/08/12 00:15:01;;;;;;;12.35;7.88;;;;;;;15.33;100.00;95456.91;4995619;28;20037;-51
2021/08/12 00:17:33;;;;;;;16.67;7.65;;;;;;;15.29;100.00;95461.25;4995916;28;20026;-51
2021/08/12 00:20:13;;;;;;;10.77;8.40;;;;;;;15.25;100.00;95454.81;5013895;28;20029;-49
2021/08/12 00:22:39;;;;;;;11.85;8.38;;;;;;;15.23;100.00;95453.50;5015268;28;20156;-54
2021/08/12 00:25:05;;;;;;;12.65;8.10;;;;;;;15.23;100.00;95453.50;5013926;28;20053;-54
2021/08/12 00:27:30;;;;;;;11.07;8.25;;;;;;;15.23;100.00;95448.09;5014913;28;20088;-57
2021/08/12 00:29:56;;;;;;;11.02;8.43;;;;;;;15.22;100.00;95451.88;5015113;28;20440;-55
2021/08/12 00:32:21;;;;;;;11.80;8.00;;;;;;;15.23;100.00;95445.41;5015084;28;20029;-52
2021/08/12 00:34:54;;;;;;;11.27;8.25;;;;;;;15.21;100.00;95451.09;5014513;28;20061;-54
2021/08/12 00:37:20;;;;;;;10.57;8.30;;;;;;;15.21;100.00;95447.59;5014513;28;20018;-57
2021/08/12 00:39:45;;;;;;;12.63;8.00;;;;;;;15.20;100.00;95443.28;5014850;28;20543;-50
2021/08/12 00:42:11;;;;;;;12.15;8.93;;;;;;;15.18;100.00;95445.44;5014785;28;20032;-52
2021/08/12 00:44:54;;;;;;;12.45;8.38;;;;;;;15.15;100.00;95444.13;5013479;28;20030;-55
2021/08/12 00:47:19;;;;;;;13.80;9.38;;;;;;;15.10;100.00;95446.06;5014802;28;20034;-53
2021/08/12 00:49:45;;;;;;;11.48;8.43;;;;;;;15.07;100.00;95442.84;5014703;28;20034;-52
2021/08/12 00:52:11;;;;;;;12.98;8.93;;;;;;;15.07;100.00;95445.53;5013483;28;20030;-54
2021/08/12 00:54:40;;;;;;;11.80;8.65;;;;;;;15.06;100.00;95443.13;5014433;28;20404;-55
2021/08/12 00:57:06;;;;;;;11.45;8.20;;;;;;;15.04;100.00;95443.41;5014693;28;20069;-51
2021/08/12 00:59:40;;;;;;;11.25;8.70;;;;;;;15.02;100.00;95442.88;5013451;28;20036;-56
2021/08/12 01:02:15;;;;;;;14.07;8.88;;;;;;;15.01;100.00;95440.47;4997054;28;20064;-56
2021/08/12 01:04:53;;;;;;;12.27;8.85;;;;;;;15.01;100.00;95429.69;5013155;28;20113;-53
2021/08/12 01:07:56;;;;;;;12.23;8.35;;;;;;;15.04;100.00;95431.81;5014274;28;20475;-51
2021/08/12 01:10:30;;;;;;;11.18;8.68;;;;;;;15.03;100.00;95427.50;5014549;28;20026;-52
2021/08/12 01:13:12;;;;;;;12.38;9.25;;;;;;;15.02;100.00;95418.63;5014332;28;20105;-54
2021/08/12 01:15:47;;;;;;;12.98;8.60;;;;;;;15.01;100.00;95418.91;5013021;28;20033;-57
2021/08/12 01:18:37;;;;;;;11.50;8.45;;;;;;;14.96;100.00;95410.84;5013408;28;20026;-56
2021/08/12 01:21:24;;;;;;;16.50;9.65;;;;;;;15.00;100.00;95414.59;5002525;28;20087;-52
2021/08/12 01:24:09;;;;;;;14.23;8.05;;;;;;;14.94;100.00;95410.31;5012767;28;20037;-54
2021/08/12 01:26:40;;;;;;;11.38;9.15;;;;;;;14.89;100.00;95410.38;5014162;28;20387;-57
2021/08/12 01:29:41;;;;;;;12.70;8.40;;;;;;;14.86;100.00;95406.34;5014151;28;20056;-53
2021/08/12 01:32:19;;;;;;;14.30;8.30;;;;;;;14.82;100.00;95399.13;5013838;28;20090;-51
2021/08/12 01:35:17;;;;;;;11.75;8.30;;;;;;;14.82;100.00;95402.63;5013679;28;20076;-53
2021/08/12 01:37:50;;;;;;;15.23;9.57;;;;;;;14.79;100.00;95381.63;5013940;28;20092;-56
2021/08/12 01:40:25;;;;;;;11.95;8.77;;;;;;;14.75;100.00;95396.72;5012430;28;20053;-50
2021/08/12 01:42:52;;;;;;;13.77;9.50;;;;;;;14.71;100.00;95383.03;5012438;28;20053;-49
2021/08/12 01:45:18;;;;;;;13.25;8.57;;;;;;;14.67;100.00;95386.59;5013741;28;20076;-49
2021/08/12 01:47:49;;;;;;;12.55;8.57;;;;;;;14.62;100.00;95382.03;5012680;28;20029;-55
2021/08/12 01:50:16;;;;;;;16.92;8.98;;;;;;;14.61;100.00;95372.31;5012390;28;20053;-52
2021/08/12 01:52:46;;;;;;;11.95;8.60;;;;;;;14.61;100.00;95368.81;5013455;28;20022;-56
2021/08/12 01:55:17;;;;;;;10.95;8.32;;;;;;;14.62;100.00;95367.75;5013541;28;20108;-50
2021/08/12 01:57:44;;;;;;;11.77;9.27;;;;;;;14.71;100.00;95366.03;5013539;28;20025;-52
2021/08/12 02:00:12;;;;;;;10.90;9.20;;;;;;;14.74;100.00;95346.59;5012162;28;20030;-51
2021/08/12 02:02:45;;;;;;;15.00;9.68;;;;;;;14.69;100.00;95328.59;5012061;28;20385;-54
2021/08/12 02:05:15;;;;;;;17.85;9.18;;;;;;;14.65;100.00;95322.16;5013373;28;20018;-58
2021/08/12 02:07:48;;;;;;;13.70;8.88;;;;;;;14.63;100.00;95320.81;5013115;28;20026;-52
2021/08/12 02:10:15;;;;;;;10.50;8.63;;;;;;;14.56;100.00;95313.09;5013428;28;20420;-53
2021/08/12 02:12:40;;;;;;;12.70;9.38;;;;;;;14.56;100.00;95299.59;5013162;28;20427;-55
2021/08/12 02:15:07;;;;;;;12.23;8.82;;;;;;;14.56;100.00;95294.22;5013253;28;20097;-51
2021/08/12 02:17:36;;;;;;;13.52;9.20;;;;;;;14.52;100.00;95292.34;5013162;28;20022;-55
2021/08/12 02:20:11;;;;;;;12.25;9.07;;;;;;;14.45;100.00;95290.00;5012861;28;20022;-53
2021/08/12 02:23:21;;;;;;;11.52;8.13;;;;;;;14.39;100.00;95283.81;5000883;28;20021;-56
2021/08/12 02:25:56;;;;;;;13.32;9.00;;;;;;;14.37;100.00;95283.31;4959224;28;20038;-57
2021/08/12 02:28:31;;;;;;;15.18;9.48;;;;;;;14.36;100.00;95280.91;4971504;28;20158;-53
2021/08/12 02:30:57;;;;;;;14.20;9.05;;;;;;;14.35;100.00;95274.69;4955492;28;20070;-51
2021/08/12 02:33:28;;;;;;;18.00;8.60;;;;;;;14.34;100.00;95275.78;4971275;28;20058;-53
2021/08/12 02:35:54;;;;;;;14.43;9.13;;;;;;;14.36;100.00;95256.66;4955348;28;20038;-57
2021/08/12 02:38:31;;;;;;;11.90;8.68;;;;;;;14.35;100.00;95263.13;4971636;28;20050;-56
2021/08/12 02:40:58;;;;;;;13.77;9.02;;;;;;;14.34;100.00;95248.03;4940274;28;20537;-56
2021/08/12 02:43:38;;;;;;;10.98;8.77;;;;;;;14.35;100.00;95250.44;4971509;28;20085;-56
2021/08/12 02:46:11;;;;;;;12.02;8.70;;;;;;;14.32;100.00;95242.91;4971514;28;20027;-57
2021/08/12 02:48:38;;;;;;;12.73;9.25;;;;;;;14.32;100.00;95239.41;4971493;28;20038;-53
2021/08/12 02:51:04;;;;;;;11.18;8.20;;;;;;;14.31;100.00;95235.13;4971234;28;20046;-56
2021/08/12 02:53:38;;;;;;;12.95;8.77;;;;;;;14.28;100.00;95236.50;4955101;28;20073;-56
2021/08/12 02:56:10;;;;;;;16.27;9.60;;;;;;;14.29;100.00;95232.72;4985799;28;20073;-54
2021/08/12 02:58:42;;;;;;;11.93;8.32;;;;;;;14.26;100.00;95232.50;5012647;28;20029;-52
2021/08/12 03:01:16;;;;;;;15.13;8.82;;;;;;;14.21;100.00;95234.13;5011340;28;20026;-56
2021/08/12 03:03:46;;;;;;;15.30;9.73;;;;;;;14.20;100.00;95235.22;5012280;28;20038;-55
2021/08/12 03:06:17;;;;;;;13.63;8.85;;;;;;;14.21;100.00;95230.63;5012563;28;20036;-55
2021/08/12 03:08:48;;;;;;;10.80;8.52;;;;;;;14.23;100.00;95222.28;5012532;28;20018;-52
2021/08/12 03:11:18;;;;;;;12.43;9.00;;;;;;;14.19;100.00;95213.94;5012595;28;20397;-56
2021/08/12 03:13:53;;;;;;;12.65;8.48;;;;;;;14.11;100.00;95207.31;5011131;28;20113;-55
2021/08/12 03:16:22;;;;;;;13.60;8.50;;;;;;;14.08;100.00;95204.34;5012336;28;20022;-55
2021/08/12 03:18:48;;;;;;;15.13;9.48;;;;;;;14.06;100.00;95199.25;5011064;28;20018;-52
2021/08/12 03:21:16;;;;;;;17.65;8.48;;;;;;;14.05;100.00;95196.84;5001910;28;20077;-55
2021/08/12 03:23:43;;;;;;;16.15;9.73;;;;;;;14.03;100.00;95201.72;4991431;28;20046;-57
2021/08/12 03:26:10;;;;;;;10.88;8.20;;;;;;;14.02;100.00;95197.44;4992912;28;20029;-56
2021/08/12 03:28:35;;;;;;;11.35;8.93;;;;;;;14.02;100.00;95189.34;4991252;28;20063;-54
2021/08/12 03:31:02;;;;;;;13.52;9.55;;;;;;;13.99;100.00;95193.38;4992731;28;20413;-52
2021/08/12 03:33:37;;;;;;;12.63;9.38;;;;;;;13.97;100.00;95192.88;4992532;28;20066;-52
2021/08/12 03:36:03;;;;;;;14.32;9.68;;;;;;;13.96;100.00;95193.16;4992743;28;20026;-54
2021/08/12 03:38:29;;;;;;;12.65;8.80;;;;;;;13.92;100.00;95199.13;4992738;28;20042;-52
2021/08/12 03:40:58;;;;;;;11.98;8.77;;;;;;;13.90;100.00;95200.50;4992597;28;20069;-53
2021/08/12 03:43:26;;;;;;;11.25;8.30;;;;;;;13.88;100.00;95202.63;4992495;28;20122;-49
2021/08/12 03:45:54;;;;;;;13.45;8.77;;;;;;;13.83;100.00;95195.44;4992535;28;20385;-54
2021/08/12 03:48:20;;;;;;;12.73;8.75;;;;;;;13.82;100.00;95187.63;4991163;28;20447;-54
2021/08/12 03:50:47;;;;;;;14.00;9.15;;;;;;;13.78;100.00;95187.38;4991135;28;20066;-53
2021/08/12 03:53:36;;;;;;;14.65;8.98;;;;;;;13.82;100.00;95190.31;4992402;28;20026;-54
2021/08/12 03:56:01;;;;;;;15.80;9.52;;;;;;;13.87;100.00;95187.56;4974914;28;20073;-50
2021/08/12 03:58:29;;;;;;;12.98;9.68;;;;;;;13.87;100.00;95185.69;4991133;28;20473;-52
2021/08/12 04:00:55;;;;;;;11.55;8.43;;;;;;;13.83;100.00;95190.03;4992580;28;20026;-52
2021/08/12 04:03:28;;;;;;;17.25;8.82;;;;;;;13.80;100.00;95182.53;4991021;28;20030;-55
2021/08/12 04:05:59;;;;;;;14.25;9.18;;;;;;;13.74;100.00;95180.16;4990996;28;20052;-54
2021/08/12 04:08:25;;;;;;;18.63;9.38;;;;;;;13.71;100.00;95175.34;4974947;28;20463;-56
2021/08/12 04:10:50;;;;;;;12.77;8.93;;;;;;;13.69;100.00;95169.44;4991186;28;20106;-55
2021/08/12 04:13:16;;;;;;;13.05;8.70;;;;;;;13.67;100.00;95171.59;4994472;28;20030;-56
2021/08/12 04:15:44;;;;;;;11.40;9.23;;;;;;;13.67;100.00;95174.28;4995717;28;20038;-53
2021/08/12 04:18:12;;;;;;;13.82;8.38;;;;;;;13.68;100.00;95165.94;4998828;28;20021;-55
2021/08/12 04:20:40;;;;;;;13.45;8.80;;;;;;;13.67;100.00;95166.22;5010700;28;20034;-54
2021/08/12 04:23:08;;;;;;;15.18;9.40;;;;;;;13.64;100.00;95168.38;4995478;28;20025;-53
2021/08/12 04:25:36;;;;;;;12.98;9.15;;;;;;;13.62;100.00;95159.00;4994211;28;20037;-50
2021/08/12 04:28:05;;;;;;;13.25;9.15;;;;;;;13.62;100.00;95156.31;4994129;28;20030;-55
2021/08/12 04:30:33;;;;;;;12.10;9.10;;;;;;;13.59;100.00;95149.59;4995454;28;20026;-53
2021/08/12 04:33:01;;;;;;;11.27;8.82;;;;;;;13.59;100.00;95140.72;4995574;28;20089;-51
2021/08/12 04:35:34;;;;;;;11.50;8.60;;;;;;;13.62;100.00;95143.66;4995161;28;20034;-52
2021/08/12 04:38:03;;;;;;;11.35;8.50;;;;;;;13.65;100.00;95142.28;4995309;28;20485;-55
2021/08/12 04:40:28;;;;;;;15.60;8.95;;;;;;;13.64;100.00;95146.84;4995320;28;20030;-55
2021/08/12 04:42:54;;;;;;;11.57;9.30;;;;;;;13.64;100.00;95146.84;4995104;28;20059;-58
2021/08/12 04:45:20;;;;;;;14.40;8.95;;;;;;;13.66;100.00;95149.25;4995229;28;20401;-58
2021/08/12 04:47:45;;;;;;;12.35;9.75;;;;;;;13.68;100.00;95136.34;4994664;28;20097;-58
2021/08/12 04:50:20;;;;;;;15.02;8.98;;;;;;;13.66;100.00;95143.88;4993819;28;20065;-57
2021/08/12 04:52:45;;;;;;;11.98;8.80;;;;;;;13.66;100.00;95145.75;4994921;28;20436;-58
2021/08/12 04:55:14;;;;;;;14.65;9.15;;;;;;;13.66;100.00;95145.75;4993693;28;20026;-59
2021/08/12 04:57:45;;;;;;;13.20;8.63;;;;;;;13.68;100.00;95138.22;4994952;28;20528;-58
2021/08/12 05:00:14;;;;;;;12.27;8.77;;;;;;;13.70;100.00;95130.69;4993727;28;20113;-58
2021/08/12 05:02:46;;;;;;;13.02;9.15;;;;;;;13.81;100.00;95122.22;4994613;28;20367;-58
2021/08/12 05:05:11;;;;;;;13.20;9.75;;;;;;;13.93;100.00;95116.44;4994854;28;20093;-58
2021/08/12 05:07:45;;;;;;;14.70;10.55;;;;;;;14.03;100.00;95118.25;4993504;28;20050;-55
2021/08/12 05:10:10;;;;;;;11.45;8.60;;;;;;;14.12;100.00;95116.53;4994677;28;20022;-58
2021/08/12 05:12:36;;;;;;;14.82;9.13;;;;;;;14.24;100.00;95116.13;4994550;28;20069;-57
2021/08/12 05:15:01;;;;;;;14.55;9.68;;;;;;;14.39;100.00;95113.25;4977019;28;20578;-58
2021/08/12 05:17:27;;;;;;;18.20;10.25;;;;;;;14.57;100.00;95114.41;4993304;28;20033;-58
2021/08/12 05:19:52;;;;;;;14.68;9.73;;;;;;;14.74;100.00;95109.31;5011742;28;20137;-57
2021/08/12 05:22:20;;;;;;;20.35;11.13;;;;;;;14.94;100.00;95100.16;4995871;28;20073;-58
2021/08/12 05:24:45;;;;;;;20.23;10.85;;;;;;;15.12;100.00;95109.34;4994404;28;20034;-56
2021/08/12 05:27:19;;;;;;;24.17;11.20;;;;;;;15.29;100.00;95105.00;4992977;28;20034;-56
2021/08/12 05:29:45;;;;;;;18.77;11.45;;;;;;;15.49;100.00;95103.09;4994296;28;20106;-57
2021/08/12 05:32:10;;;;;;;21.13;11.02;;;;;;;15.70;100.00;95100.88;4994276;28;20113;-56
2021/08/12 05:34:47;;;;;;;16.33;10.60;;;;;;;15.92;100.00;95096.44;4992772;28;20104;-57
2021/08/12 05:37:13;;;;;;;22.77;10.10;;;;;;;16.15;100.00;95093.84;5000439;28;20108;-57
2021/08/12 05:39:41;;;;;;;21.73;10.30;;;;;;;16.38;100.00;95092.84;5012402;28;20061;-55
2021/08/12 05:42:07;;;;;;;12.90;9.55;;;;;;;16.59;100.00;95090.53;5012224;28;20028;-56
2021/08/12 05:44:45;;;;;;;18.27;10.38;;;;;;;16.82;100.00;95086.03;5013546;28;20021;-57
2021/08/12 05:47:17;;;;;;;18.38;9.55;;;;;;;17.12;100.00;95075.63;5012347;28;20111;-56
2021/08/12 05:49:42;;;;;;;16.35;9.55;;;;;;;17.38;100.00;95087.47;5012176;28;20025;-55
2021/08/12 05:52:14;;;;;;;12.85;9.20;;;;;;;17.61;100.00;95080.94;5013493;28;20068;-57
2021/08/12 05:54:45;;;;;;;16.83;9.63;;;;;;;17.86;100.00;95081.44;5013149;28;20026;-58
2021/08/12 05:57:10;;;;;;;15.15;10.15;;;;;;;18.10;100.00;95072.94;5013403;28;20025;-58
2021/08/12 05:59:36;;;;;;;14.48;9.35;;;;;;;18.37;100.00;95059.19;5013361;28;20146;-60
2021/08/12 06:02:04;;;;;;;14.65;8.70;;;;;;;18.69;100.00;95065.34;5012131;28;20036;-59
2021/08/12 06:04:30;;;;;;;15.15;8.63;;;;;;;18.93;100.00;95049.41;5013187;28;20028;-59
2021/08/12 06:06:55;;;;;;;10.32;8.02;;;;;;;19.10;100.00;95045.91;5013512;28;20029;-58
2021/08/12 06:09:20;;;;;;;10.10;7.78;;;;;;;19.28;100.00;95027.69;5013020;28;20546;-58
2021/08/12 06:11:46;;;;;;;11.10;8.32;;;;;;;19.46;100.00;95025.75;5013186;28;20022;-58
2021/08/12 06:14:11;;;;;;;9.65;7.63;;;;;;;19.73;100.00;94998.22;5013000;28;20519;-59
2021/08/12 06:16:36;;;;;;;10.80;8.05;;;;;;;20.01;100.00;94982.31;5013104;28;20057;-59
2021/08/12 06:19:07;;;;;;;14.07;8.50;;;;;;;20.28;100.00;94949.19;5013026;28;20014;-58
2021/08/12 06:21:34;;;;;;;11.07;8.93;;;;;;;20.52;100.00;94917.88;5001193;28;20026;-58
2021/08/12 06:24:13;;;;;;;10.70;7.95;;;;;;;20.76;100.00;94893.50;4993220;28;20044;-58
2021/08/12 06:26:45;;;;;;;12.68;8.98;;;;;;;20.94;100.00;94866.91;4993358;28;20038;-59
2021/08/12 06:29:11;;;;;;;11.30;7.57;;;;;;;21.16;100.00;94845.84;4991936;28;20030;-58
2021/08/12 06:31:40;;;;;;;12.02;7.65;;;;;;;21.40;100.00;94822.22;4993059;28;20086;-58
2021/08/12 06:34:08;;;;;;;10.57;8.00;;;;;;;21.66;100.00;94821.88;5002507;28;20053;-58
2021/08/12 06:36:33;;;;;;;10.07;7.63;;;;;;;21.81;100.00;94831.28;5015123;28;20424;-58
2021/08/12 06:38:59;;;;;;;17.17;8.13;;;;;;;21.99;100.00;94834.56;5050885;28;20024;-59
2021/08/12 06:41:43;;;;;;;10.70;7.90;;;;;;;22.12;100.00;94862.63;5018263;28;20021;-59
2021/08/12 06:44:10;;;;;;;12.32;8.13;;;;;;;22.32;100.00;94880.78;5051865;28;20036;-59
2021/08/12 06:46:38;;;;;;;12.43;8.23;;;;;;;22.54;100.00;94885.75;5034111;28;20033;-56
2021/08/12 06:49:13;;;;;;;11.82;8.57;;;;;;;22.73;100.00;94912.44;5052294;28;20064;-56
2021/08/12 06:51:39;;;;;;;12.02;8.45;;;;;;;22.98;100.00;94935.00;5052151;28;20021;-59
2021/08/12 06:54:04;;;;;;;11.57;8.15;;;;;;;23.24;100.00;94967.38;5051980;28;20554;-57
2021/08/12 06:56:33;;;;;;;11.18;8.27;;;;;;;23.51;100.00;95003.22;5034253;28;20025;-59
2021/08/12 06:58:58;;;;;;;9.57;8.32;;;;;;;23.70;100.00;95049.88;5034272;28;20514;-60
2021/08/12 07:01:26;;;;;;;9.98;7.78;;;;;;;23.89;100.00;95069.19;5034179;28;20112;-60
2021/08/12 07:04:12;;;;;;;9.98;8.27;;;;;;;24.13;100.00;95106.56;5052034;28;20031;-60
2021/08/12 07:06:40;;;;;;;9.80;7.22;;;;;;;24.35;100.00;95134.50;5052166;28;20024;-60
2021/08/12 07:09:09;;;;;;;10.43;7.20;;;;;;;24.55;100.00;95163.59;5034002;28;20033;-60
2021/08/12 07:11:36;;;;;;;12.43;7.45;;;;;;;24.64;100.00;95249.13;5051861;28;20111;-60
2021/08/12 07:14:08;;;;;;;9.90;7.57;;;;;;;24.82;100.00;95249.59;5051891;28;20025;-60
2021/08/12 07:16:33;;;;;;;9.27;6.68;;;;;;;24.96;100.00;95277.34;5034121;28;20029;-58
2021/08/12 07:19:04;;;;;;;11.80;7.85;;;;;;;25.16;100.00;95300.22;5037336;28;20028;-59
2021/08/12 07:21:32;;;;;;;9.13;7.57;;;;;;;25.29;100.00;95318.19;5059966;28;20112;-60
2021/08/12 07:23:58;;;;;;;10.43;7.75;;;;;;;25.39;100.00;95347.81;5033797;28;20029;-59
2021/08/12 07:26:31;;;;;;;8.90;7.50;;;;;;;25.46;100.00;95376.56;5051839;28;20067;-60
2021/08/12 07:29:06;;;;;;;11.23;7.60;;;;;;;25.57;100.00;95418.78;5002062;28;20068;-59
2021/08/12 07:31:37;;;;;;;8.73;7.30;;;;;;;25.75;100.00;95433.81;5051751;28;20021;-60
2021/08/12 07:34:03;;;;;;;10.23;7.75;;;;;;;25.91;100.00;95442.81;5051570;28;20045;-59
2021/08/12 07:36:28;;;;;;;11.15;7.20;;;;;;;25.97;100.00;95446.13;5051608;28;20029;-57
2021/08/12 07:39:04;;;;;;;9.45;7.15;;;;;;;26.11;100.00;95493.13;5033793;28;20491;-58
2021/08/12 07:41:36;;;;;;;9.45;6.95;;;;;;;26.28;100.00;95519.44;5051738;28;20538;-59
2021/08/12 07:44:03;;;;;;;11.45;8.30;;;;;;;26.23;100.00;95531.47;5033809;28;20051;-60
2021/08/12 07:46:29;;;;;;;10.95;6.75;;;;;;;26.38;100.00;95487.94;5052839;28;20438;-58
2021/08/12 07:48:59;;;;;;;11.63;7.53;;;;;;;26.45;100.00;95526.53;5037785;28;20025;-60
2021/08/12 07:51:31;;;;;;;11.32;8.02;;;;;;;26.60;100.00;95457.06;5037585;28;20025;-60
2021/08/12 07:53:59;;;;;;;13.88;9.02;;;;;;;26.51;100.00;95489.41;5037542;28;20056;-60
2021/08/12 07:56:36;;;;;;;10.20;8.13;;;;;;;26.64;100.00;95481.84;5055423;28;20103;-59
2021/08/12 07:59:02;;;;;;;11.60;8.20;;;;;;;26.51;100.00;95498.44;5055403;28;20025;-58
2021/08/12 08:01:27;;;;;;;14.18;9.32;;;;;;;26.37;100.00;95494.56;5055260;28;20435;-59
2021/08/12 08:03:58;;;;;;;11.45;7.63;;;;;;;26.30;100.00;95460.25;5037199;28;20025;-59
2021/08/12 08:06:27;;;;;;;11.77;7.88;;;;;;;26.63;100.00;95483.00;5055226;28;20033;-59
2021/08/12 08:08:52;;;;;;;11.75;9.00;;;;;;;26.94;100.00;95524.16;5055072;28;20162;-58
2021/08/12 08:11:17;;;;;;;10.02;8.50;;;;;;;27.22;100.00;95509.44;5055099;28;20116;-58
2021/08/12 08:13:44;;;;;;;11.20;9.13;;;;;;;27.27;100.00;95518.22;5055023;28;20027;-60
2021/08/12 08:16:09;;;;;;;12.45;8.70;;;;;;;27.32;100.00;95512.41;5054854;28;20036;-60
2021/08/12 08:18:41;;;;;;;10.52;8.73;;;;;;;27.33;100.00;95516.75;5056095;28;20025;-60
2021/08/12 08:21:06;;;;;;;11.95;8.82;;;;;;;27.19;100.00;95501.94;5066387;28;20028;-60
2021/08/12 08:23:31;;;;;;;10.82;8.68;;;;;;;27.32;100.00;95495.13;5054872;28;20025;-60
2021/08/12 08:26:03;;;;;;;12.32;9.32;;;;;;;27.52;100.00;95491.22;5054927;28;20025;-60
2021/08/12 08:28:35;;;;;;;12.50;8.83;;;;;;;27.87;100.00;95507.63;5054660;28;20025;-60
2021/08/12 08:31:12;;;;;;;16.25;9.18;;;;;;;27.88;100.00;95568.97;5054686;28;20279;-60
2021/08/12 08:34:03;;;;;;;12.32;10.10;;;;;;;27.98;100.00;95555.41;5054129;28;20029;-59
2021/08/12 08:36:34;;;;;;;13.65;9.75;;;;;;;28.02;100.00;95561.00;5036728;28;20036;-60
2021/08/12 08:39:02;;;;;;;10.68;9.10;;;;;;;27.75;100.00;95551.84;5036933;28;20047;-60
2021/08/12 08:41:30;;;;;;;13.90;9.48;;;;;;;27.72;100.00;95511.28;5054443;28;20032;-58
2021/08/12 08:44:13;;;;;;;10.00;8.80;;;;;;;27.71;100.00;95506.94;5054475;28;20029;-59
2021/08/12 08:46:46;;;;;;;12.63;9.52;;;;;;;28.02;100.00;95534.28;5054451;28;20025;-60
2021/08/12 08:49:19;;;;;;;12.85;8.68;;;;;;;28.11;100.00;95522.19;5054358;28;20468;-60
2021/08/12 08:51:46;;;;;;;13.32;10.07;;;;;;;27.88;100.00;95541.44;5054157;28;20029;-61
2021/08/12 08:54:12;;;;;;;10.85;8.38;;;;;;;27.73;100.00;95529.38;5019980;28;20025;-60
2021/08/12 08:56:49;;;;;;;14.70;9.82;;;;;;;28.05;100.00;95541.00;5053993;28;20112;-60
2021/08/12 08:59:15;;;;;;;11.43;8.85;;;;;;;28.18;100.00;95517.63;5020314;28;20158;-60
2021/08/12 09:01:40;;;;;;;12.70;9.68;;;;;;;28.30;100.00;95546.97;5036236;28;20029;-62
2021/08/12 09:04:06;;;;;;;11.10;9.32;;;;;;;28.04;100.00;95550.44;5053750;28;20032;-62
2021/08/12 09:06:38;;;;;;;11.70;8.43;;;;;;;28.01;100.00;95422.53;5036164;28;20079;-62
2021/08/12 09:09:03;;;;;;;;;;;;;;;28.10;100.00;95524.16;5036844;28;20116;-62
2021/08/12 09:11:46;;;;;;;11.70;8.50;;;;;;;28.21;100.00;95536.16;5053945;28;20454;-62
2021/08/12 09:14:51;;;;;;;10.38;9.05;;;;;;;28.49;100.00;95548.88;5053865;28;20027;-62
2021/08/12 09:17:26;;;;;;;10.70;9.50;;;;;;;28.82;100.00;95601.41;5039151;28;20029;-62
2021/08/12 09:20:31;;;;;;;11.57;8.90;;;;;;;29.02;100.00;95582.03;5047780;28;20028;-62
2021/08/12 09:23:05;;;;;;;14.80;10.52;;;;;;;29.37;100.00;95573.47;5053502;28;20021;-62
2021/08/12 09:25:46;;;;;;;11.27;10.07;;;;;;;29.65;100.00;95568.34;5053684;28;20032;-62
2021/08/12 09:28:31;;;;;;;11.10;9.90;;;;;;;29.78;100.00;95639.88;5053608;28;20028;-62
2021/08/12 09:31:03;;;;;;;11.60;9.75;;;;;;;30.02;100.00;95664.25;5053627;28;20387;-62
2021/08/12 09:33:33;;;;;;;;;;;;;;;30.11;100.00;95645.47;5053551;28;20025;-65
2021/08/12 09:36:18;;;;;;;12.13;10.18;;;;;;;30.24;100.00;95671.66;5053579;28;20008;-62
2021/08/12 09:39:16;;;;;;;10.93;9.25;;;;;;;30.32;100.00;95664.25;5053520;28;20036;-62
2021/08/12 09:41:48;;;;;;;12.30;10.13;;;;;;;30.37;100.00;95694.31;5035393;28;20394;-61
2021/08/12 09:44:40;;;;;;;9.98;8.93;;;;;;;30.49;100.00;95693.25;5053329;28;20024;-62
2021/08/12 09:47:10;;;;;;;11.75;9.73;;;;;;;30.69;100.00;95697.44;5053360;28;20075;-62
2021/08/12 09:49:42;;;;;;;10.75;9.60;;;;;;;30.83;100.00;95732.78;5018847;28;20108;-62
2021/08/12 09:52:47;;;;;;;12.82;10.63;;;;;;;30.81;100.00;95735.88;5053044;28;20029;-62
2021/08/12 09:55:18;;;;;;;11.35;9.82;;;;;;;30.75;100.00;95733.88;4952898;29;20031;-62
2021/08/12 09:58:12;;;;;;;14.95;11.02;;;;;;;30.98;100.00;95728.16;4968003;28;20033;-62
2021/08/12 10:00:48;;;;;;;15.00;11.13;;;;;;;31.09;100.00;95763.06;4972146;28;20066;-61
2021/08/12 10:03:33;;;;;;;15.93;10.55;;;;;;;31.42;100.00;95780.78;4972148;28;20622;-62
2021/08/12 10:06:04;;;;;;;12.63;10.95;;;;;;;31.82;100.00;95812.38;4972071;28;20039;-62
2021/08/12 10:08:37;;;;;;;12.68;10.60;;;;;;;31.95;100.00;95820.00;4971416;28;20042;-61
2021/08/12 10:11:23;;;;;;;15.85;11.32;;;;;;;31.87;100.00;95829.44;4971840;28;20035;-62
2021/08/12 10:13:51;;;;;;;14.52;10.50;;;;;;;32.01;100.00;95828.75;4971809;28;20198;-62
2021/08/12 10:16:17;;;;;;;11.85;10.23;;;;;;;32.12;100.00;95828.81;4971931;28;20039;-63
2021/08/12 10:18:45;;;;;;;13.95;11.27;;;;;;;32.07;100.00;95827.22;4971796;28;20038;-63
2021/08/12 10:21:12;;;;;;;12.07;10.57;;;;;;;32.38;100.00;95814.75;4982300;28;20026;-63
2021/08/12 10:23:39;;;;;;;13.68;11.23;;;;;;;32.29;100.00;95834.50;4954621;28;20038;-63
2021/08/12 10:26:09;;;;;;;12.23;10.10;;;;;;;32.44;100.00;95832.59;5000292;28;20033;-63
2021/08/12 10:28:41;;;;;;;15.43;11.35;;;;;;;32.61;97.78;95839.44;5052445;28;20029;-63
2021/08/12 10:31:18;;;;;;;;;;;;;;;32.70;100.00;95827.97;5053008;28;20103;-63
2021/08/12 10:33:44;;;;;;;11.88;9.48;;;;;;;32.85;100.00;95808.25;5052781;28;19924;-62
2021/08/12 10:36:17;;;;;;;18.20;11.68;;;;;;;32.74;100.00;95826.00;5052483;28;20029;-62
2021/08/12 10:38:45;;;;;;;13.77;10.80;;;;;;;32.77;100.00;95803.81;5052402;28;20028;-62
2021/08/12 10:41:12;;;;;;;14.18;10.80;;;;;;;32.51;100.00;95818.78;5052430;28;20071;-62
2021/08/12 10:43:39;;;;;;;13.77;11.63;;;;;;;32.64;100.00;95799.81;5052327;28;20049;-62
2021/08/12 10:46:07;;;;;;;12.60;10.77;;;;;;;32.77;100.00;95823.25;5034248;28;20025;-61
2021/08/12 10:48:33;;;;;;;15.98;11.65;;;;;;;32.90;100.00;95822.94;5052153;28;20037;-62
2021/08/12 10:51:16;;;;;;;14.15;11.15;;;;;;;32.88;100.00;95817.75;5052443;28;20028;-61
2021/08/12 10:53:46;;;;;;;12.85;10.75;;;;;;;33.33;100.00;95807.97;5034286;28;20396;-63
2021/08/12 10:56:12;;;;;;;12.38;10.68;;;;;;;33.52;97.98;95823.47;5052236;28;20475;-62
2021/08/12 10:58:43;;;;;;;13.77;11.10;;;;;;;33.49;93.65;95838.16;5052071;28;20109;-63
2021/08/12 11:01:37;;;;;;;12.23;11.00;;;;;;;33.73;91.88;95844.94;5052172;28;20029;-63
2021/08/12 11:04:04;;;;;;;14.90;10.95;;;;;;;33.73;92.67;95842.94;5051954;28;20028;-62
2021/08/12 11:06:48;;;;;;;11.80;10.60;;;;;;;33.75;92.62;95848.09;5052208;28;20025;-62
2021/08/12 11:09:16;;;;;;;11.73;10.55;;;;;;;34.01;92.96;95842.19;5033869;28;20051;-62
2021/08/12 11:11:51;;;;;;;12.43;11.13;;;;;;;34.25;91.08;95851.69;5051990;28;20021;-62
2021/08/12 11:14:46;;;;;;;12.68;10.40;;;;;;;34.45;89.62;95854.84;5051959;28;20041;-62
2021/08/12 11:17:12;;;;;;;12.63;10.13;;;;;;;34.55;86.53;95856.03;5034227;28;20391;-62
2021/08/12 11:19:37;;;;;;;11.80;10.65;;;;;;;34.72;90.36;95849.59;5018625;28;20037;-63
2021/08/12 11:22:44;;;;;;;11.30;9.90;;;;;;;34.88;89.48;95857.53;5054815;28;20032;-62
2021/08/12 11:26:04;;;;;;;13.90;10.50;;;;;;;34.81;89.00;95855.53;5055957;28;20475;-62
2021/08/12 11:28:43;;;;;;;13.05;11.10;;;;;;;34.63;83.24;95873.47;4957771;28;20097;-63
2021/08/12 11:31:18;;;;;;;10.38;9.38;;;;;;;34.74;94.92;95838.09;5040825;28;20124;-63
2021/08/12 11:33:48;;;;;;;14.70;10.25;;;;;;;34.89;91.61;95847.97;5055440;28;20060;-63
2021/08/12 11:36:31;;;;;;;11.25;10.07;;;;;;;34.81;91.65;95841.63;5037787;28;20115;-63